Time;durP1;ratioP1;P1;durP2;ratioP2;P2;SDS_P1;SDS_P2;PMS_P1;PMS_P2;Temp;Humidity;BMP_temperature;BMP_pressure;BME280_temperature;BME280_humidity;BME280_pressure;Samples;Min_cycle;Max_cycle;Signal;HPM_P1;HPM_P2
2023/06/08 00:00:26;;;;;;;22.02;9.63;;;12.10;99.90;;;;;;4940435;28;20194;-87
2023/06/08 00:02:55;;;;;;;23.17;8.73;;;12.10;99.90;;;;;;4949791;28;20061;-86
2023/06/08 00:05:22;;;;;;;24.35;9.25;;;12.10;99.90;;;;;;4940147;28;20479;-87
2023/06/08 00:07:48;;;;;;;22.88;8.18;;;12.00;99.90;;;;;;4948219;28;20126;-86
2023/06/08 00:10:14;;;;;;;18.08;6.85;;;12.10;99.90;;;;;;4940874;28;20043;-86
2023/06/08 00:12:40;;;;;;;21.08;7.50;;;12.10;99.90;;;;;;4948621;28;20049;-86
2023/06/08 00:15:07;;;;;;;24.63;6.57;;;12.10;99.90;;;;;;4938878;28;20050;-87
2023/06/08 00:17:33;;;;;;;18.95;6.20;;;12.10;99.90;;;;;;4939266;28;20046;-87
2023/06/08 00:19:59;;;;;;;14.93;6.10;;;12.00;99.90;;;;;;4939744;28;20125;-86
2023/06/08 00:22:26;;;;;;;22.05;6.93;;;12.00;99.90;;;;;;4937860;28;20402;-87
2023/06/08 00:24:52;;;;;;;19.23;6.43;;;12.00;99.90;;;;;;4954695;28;20427;-86
2023/06/08 00:27:18;;;;;;;18.48;6.32;;;12.00;99.90;;;;;;4938419;28;20043;-87
2023/06/08 00:29:44;;;;;;;19.13;8.02;;;12.00;99.90;;;;;;4931521;28;20058;-86
2023/06/08 00:32:10;;;;;;;20.13;7.18;;;12.00;99.90;;;;;;4936052;28;20133;-87
2023/06/08 00:34:35;;;;;;;21.23;7.43;;;12.00;99.90;;;;;;4937549;28;20046;-86
2023/06/08 00:37:01;;;;;;;22.38;8.27;;;12.00;99.90;;;;;;4947665;28;20046;-86
2023/06/08 00:39:27;;;;;;;17.92;9.23;;;12.00;99.90;;;;;;4941193;28;20059;-86
2023/06/08 00:41:52;;;;;;;23.92;10.07;;;12.00;99.90;;;;;;4955305;28;20042;-87
2023/06/08 00:44:18;;;;;;;29.38;10.60;;;12.00;99.90;;;;;;4953399;28;20049;-87
2023/06/08 00:46:44;;;;;;;25.33;10.32;;;12.00;99.90;;;;;;4945616;28;20134;-87
2023/06/08 00:49:15;;;;;;;20.90;8.60;;;12.00;99.90;;;;;;4935961;28;20964;-87
2023/06/08 00:51:42;;;;;;;20.33;9.02;;;12.00;99.90;;;;;;4935364;28;20074;-87
2023/06/08 00:54:10;;;;;;;21.30;8.35;;;12.10;99.90;;;;;;4934778;28;20114;-86
2023/06/08 00:56:38;;;;;;;19.25;8.65;;;12.10;99.90;;;;;;4950644;28;20388;-87
2023/06/08 00:59:05;;;;;;;23.95;7.85;;;12.30;99.90;;;;;;4936541;28;20255;-86
2023/06/08 01:01:32;;;;;;;20.17;7.55;;;12.10;99.90;;;;;;4934809;28;20333;-87
2023/06/08 01:04:05;;;;;;;19.73;7.70;;;12.00;99.90;;;;;;4934721;28;20818;-87
2023/06/08 01:06:38;;;;;;;22.40;8.13;;;12.00;99.90;;;;;;4935165;28;20043;-86
2023/06/08 01:09:19;;;;;;;21.00;7.82;;;12.10;99.90;;;;;;4963079;28;20057;-87
2023/06/08 01:11:52;;;;;;;19.67;7.63;;;12.00;99.90;;;;;;4935223;28;20073;-87
2023/06/08 01:14:36;;;;;;;21.60;8.30;;;12.00;99.90;;;;;;4939020;28;20046;-86
2023/06/08 01:17:03;;;;;;;23.67;8.38;;;12.00;99.90;;;;;;4938570;28;20046;-87
2023/06/08 01:19:38;;;;;;;24.08;9.35;;;12.00;99.90;;;;;;4941834;28;20121;-86
2023/06/08 01:22:18;;;;;;;17.50;7.28;;;12.10;99.90;;;;;;4951417;28;20070;-86
2023/06/08 01:24:50;;;;;;;16.85;5.57;;;12.00;99.90;;;;;;4936244;28;20374;-87
2023/06/08 01:27:19;;;;;;;18.03;6.43;;;12.00;99.90;;;;;;4948511;28;20039;-86
2023/06/08 01:29:45;;;;;;;22.30;7.25;;;11.90;99.90;;;;;;4956603;28;20411;-87
2023/06/08 01:32:11;;;;;;;20.95;7.88;;;11.90;99.90;;;;;;4947055;28;20034;-87
2023/06/08 01:34:39;;;;;;;26.75;8.43;;;12.00;99.90;;;;;;4941008;28;20050;-87
2023/06/08 01:37:17;;;;;;;26.05;11.00;;;11.90;99.90;;;;;;4947758;28;20056;-86
2023/06/08 01:39:55;;;;;;;25.23;12.63;;;11.90;99.90;;;;;;4937432;28;20035;-86
2023/06/08 01:42:23;;;;;;;23.85;11.73;;;11.90;99.90;;;;;;4943146;28;20399;-87
2023/06/08 01:44:58;;;;;;;24.02;12.52;;;11.90;99.90;;;;;;4945653;28;20133;-87
2023/06/08 01:47:34;;;;;;;22.08;11.15;;;12.00;99.90;;;;;;4935011;28;20115;-87
2023/06/08 01:50:01;;;;;;;26.98;12.10;;;12.00;99.90;;;;;;4955526;28;20046;-87
2023/06/08 01:52:27;;;;;;;29.05;12.63;;;12.00;99.90;;;;;;4941566;28;20051;-86
2023/06/08 01:54:53;;;;;;;26.00;10.75;;;11.90;99.90;;;;;;4949368;28;20106;-87
2023/06/08 01:57:18;;;;;;;21.70;9.25;;;12.00;99.90;;;;;;4942165;28;20146;-86
2023/06/08 01:59:44;;;;;;;24.50;10.75;;;12.00;99.90;;;;;;4954864;28;20046;-86
2023/06/08 02:02:10;;;;;;;22.27;9.93;;;12.00;99.90;;;;;;4942232;28;20042;-86
2023/06/08 02:04:36;;;;;;;21.55;10.10;;;12.00;99.90;;;;;;4954839;28;20050;-86
2023/06/08 02:07:01;;;;;;;18.85;10.95;;;12.00;99.90;;;;;;4953143;28;20045;-86
2023/06/08 02:09:27;;;;;;;26.02;11.07;;;12.00;99.90;;;;;;4939698;28;20054;-86
2023/06/08 02:12:08;;;;;;;25.73;10.38;;;12.00;99.90;;;;;;4952530;28;20035;-86
2023/06/08 02:14:34;;;;;;;24.83;10.35;;;12.00;99.90;;;;;;4949399;28;20045;-86
2023/06/08 02:17:03;;;;;;;24.65;10.38;;;12.00;99.90;;;;;;4943274;28;20061;-86
2023/06/08 02:19:30;;;;;;;22.05;10.05;;;12.10;99.90;;;;;;4947908;28;20395;-86
2023/06/08 02:21:57;;;;;;;26.95;9.57;;;12.00;99.90;;;;;;4954013;28;20054;-86
2023/06/08 02:24:23;;;;;;;24.90;9.77;;;12.10;99.90;;;;;;4963394;28;20105;-86
2023/06/08 02:26:52;;;;;;;24.35;9.20;;;12.00;99.90;;;;;;4938843;28;20038;-86
2023/06/08 02:29:18;;;;;;;15.80;7.13;;;12.00;99.90;;;;;;4930526;29;20466;-86
2023/06/08 02:31:43;;;;;;;18.42;7.35;;;12.00;99.90;;;;;;4955168;28;20038;-86
2023/06/08 02:34:10;;;;;;;21.30;7.45;;;12.00;99.90;;;;;;4947825;28;20046;-86
2023/06/08 02:36:37;;;;;;;20.30;6.80;;;12.00;99.90;;;;;;4937078;28;20157;-86
2023/06/08 02:39:03;;;;;;;26.45;8.15;;;12.00;99.90;;;;;;4947213;28;20042;-86
2023/06/08 02:41:28;;;;;;;21.92;7.95;;;12.00;99.90;;;;;;4965117;28;20128;-86
2023/06/08 02:43:54;;;;;;;22.30;7.78;;;12.10;99.90;;;;;;4947126;28;20046;-86
2023/06/08 02:46:20;;;;;;;25.77;8.57;;;12.10;99.90;;;;;;4959417;28;20050;-87
2023/06/08 02:48:46;;;;;;;20.27;8.00;;;12.00;99.90;;;;;;4947485;28;20129;-85
2023/06/08 02:51:11;;;;;;;26.95;8.70;;;12.00;99.90;;;;;;4936977;28;20039;-86
2023/06/08 02:53:37;;;;;;;19.00;7.38;;;12.00;99.90;;;;;;4953307;28;20047;-86
2023/06/08 02:56:03;;;;;;;11.63;6.28;;;12.10;99.90;;;;;;4954558;28;20070;-86
2023/06/08 02:58:31;;;;;;;18.77;7.57;;;12.10;99.90;;;;;;4944196;28;20554;-85
2023/06/08 03:01:00;;;;;;;21.00;6.80;;;12.00;99.90;;;;;;4955482;28;20546;-86
2023/06/08 03:03:27;;;;;;;19.80;7.05;;;12.00;99.90;;;;;;4962476;28;20510;-86
2023/06/08 03:05:58;;;;;;;22.10;6.13;;;12.00;99.90;;;;;;4968937;28;20409;-87
2023/06/08 03:08:26;;;;;;;22.40;7.32;;;12.10;99.90;;;;;;4955400;28;20057;-87
2023/06/08 03:10:51;;;;;;;25.05;8.85;;;12.10;99.90;;;;;;4951054;28;20043;-86
2023/06/08 03:13:17;;;;;;;26.55;8.48;;;12.10;99.90;;;;;;4961769;28;20105;-85
2023/06/08 03:15:45;;;;;;;24.25;7.70;;;12.10;99.90;;;;;;4952163;28;20129;-86
2023/06/08 03:18:10;;;;;;;17.30;7.25;;;12.10;99.90;;;;;;4966603;28;20065;-86
2023/06/08 03:20:37;;;;;;;22.55;7.40;;;12.10;99.90;;;;;;4951102;28;20042;-86
2023/06/08 03:23:04;;;;;;;22.67;7.22;;;12.30;99.90;;;;;;4954853;28;20514;-86
2023/06/08 03:25:30;;;;;;;19.55;6.47;;;12.20;99.90;;;;;;4934937;28;20055;-86
2023/06/08 03:27:56;;;;;;;19.73;7.47;;;12.10;99.90;;;;;;4939720;28;20046;-86
2023/06/08 03:30:21;;;;;;;27.35;7.80;;;12.10;99.90;;;;;;4943976;28;20046;-86
2023/06/08 03:32:48;;;;;;;17.80;6.97;;;12.20;99.90;;;;;;4943339;28;20104;-86
2023/06/08 03:35:16;;;;;;;21.60;6.05;;;12.20;99.90;;;;;;4950762;28;20050;-85
2023/06/08 03:37:41;;;;;;;20.23;7.65;;;12.20;99.90;;;;;;4954286;28;20123;-85
2023/06/08 03:40:08;;;;;;;19.02;5.78;;;12.20;99.90;;;;;;4953901;28;20042;-86
2023/06/08 03:42:33;;;;;;;22.25;5.72;;;12.20;99.90;;;;;;4967928;28;20122;-86
2023/06/08 03:44:59;;;;;;;23.95;6.32;;;12.20;99.90;;;;;;4946924;28;20635;-85
2023/06/08 03:47:25;;;;;;;25.50;6.40;;;12.30;99.90;;;;;;4946800;28;20045;-86
2023/06/08 03:49:51;;;;;;;19.02;6.22;;;12.30;99.90;;;;;;4970997;28;20042;-85
2023/06/08 03:52:17;;;;;;;16.42;6.18;;;12.30;99.90;;;;;;4954504;28;20064;-85
2023/06/08 03:54:45;;;;;;;21.38;7.10;;;12.30;99.90;;;;;;4949073;28;20037;-86
2023/06/08 03:57:10;;;;;;;20.55;6.90;;;12.30;99.90;;;;;;4942246;28;20482;-85
2023/06/08 03:59:37;;;;;;;18.52;6.60;;;12.30;99.90;;;;;;4948645;28;20053;-85
2023/06/08 04:02:03;;;;;;;16.13;5.80;;;12.30;99.90;;;;;;4942053;28;20042;-86
2023/06/08 04:04:29;;;;;;;21.35;6.22;;;12.30;99.90;;;;;;4964719;28;20042;-86
2023/06/08 04:07:00;;;;;;;25.02;7.53;;;12.30;99.90;;;;;;4945289;28;20141;-86
2023/06/08 04:09:27;;;;;;;18.13;6.70;;;12.40;99.90;;;;;;4962948;28;20123;-85
2023/06/08 04:11:52;;;;;;;18.38;7.00;;;12.40;99.90;;;;;;4951308;28;20588;-85
2023/06/08 04:14:18;;;;;;;20.17;7.05;;;12.40;99.90;;;;;;4944334;28;20163;-85
2023/06/08 04:16:44;;;;;;;17.08;6.78;;;12.40;99.90;;;;;;4938126;28;20058;-86
2023/06/08 04:19:09;;;;;;;23.80;6.95;;;12.40;99.90;;;;;;4952974;28;20122;-85
2023/06/08 04:21:36;;;;;;;19.50;7.00;;;12.50;99.90;;;;;;4952731;28;20042;-86
2023/06/08 04:24:02;;;;;;;21.75;6.85;;;12.40;99.90;;;;;;4941246;28;20503;-85
2023/06/08 04:26:28;;;;;;;17.35;6.28;;;12.50;99.90;;;;;;4953207;28;20064;-85
2023/06/08 04:28:54;;;;;;;18.27;6.78;;;12.50;99.90;;;;;;4957077;28;20098;-86
2023/06/08 04:31:20;;;;;;;21.05;7.13;;;12.50;99.90;;;;;;4937896;28;21055;-87
2023/06/08 04:33:46;;;;;;;18.08;7.13;;;12.50;99.90;;;;;;4941849;28;20074;-86
2023/06/08 04:36:12;;;;;;;19.63;7.40;;;12.60;99.90;;;;;;4937247;28;20041;-87
2023/06/08 04:38:38;;;;;;;22.17;7.90;;;12.60;99.90;;;;;;4941254;28;20536;-87
2023/06/08 04:41:07;;;;;;;19.02;7.32;;;12.60;99.90;;;;;;4942015;28;20046;-86
2023/06/08 04:43:34;;;;;;;24.88;7.43;;;12.60;99.90;;;;;;4944798;28;20050;-86
2023/06/08 04:46:04;;;;;;;24.67;7.53;;;12.70;99.90;;;;;;4938450;28;20413;-86
2023/06/08 04:48:33;;;;;;;19.27;8.18;;;12.60;99.90;;;;;;4940952;28;20592;-86
2023/06/08 04:51:01;;;;;;;24.92;8.43;;;12.90;99.90;;;;;;4940844;28;20046;-87
2023/06/08 04:53:30;;;;;;;17.25;7.80;;;12.80;99.90;;;;;;4940894;28;20129;-86
2023/06/08 04:55:57;;;;;;;21.17;6.95;;;12.80;99.90;;;;;;4941585;28;20233;-87
2023/06/08 04:58:25;;;;;;;23.30;6.95;;;12.80;99.90;;;;;;4953353;28;20039;-87
2023/06/08 05:00:52;;;;;;;25.05;6.82;;;12.90;99.90;;;;;;4938602;28;20337;-86
2023/06/08 05:03:20;;;;;;;22.33;6.85;;;12.90;99.90;;;;;;4944262;28;20517;-86
2023/06/08 05:05:46;;;;;;;24.67;7.55;;;12.90;99.90;;;;;;4937052;28;20136;-87
2023/06/08 05:08:11;;;;;;;24.13;6.90;;;12.90;99.90;;;;;;4950977;28;20055;-87
2023/06/08 05:10:37;;;;;;;24.55;7.63;;;12.90;99.90;;;;;;4933797;28;20141;-86
2023/06/08 05:13:03;;;;;;;30.13;6.88;;;12.90;99.90;;;;;;4935749;28;20043;-87
2023/06/08 05:15:30;;;;;;;20.20;6.53;;;13.00;99.90;;;;;;4934935;28;20126;-87
2023/06/08 05:17:57;;;;;;;24.77;6.85;;;13.10;99.90;;;;;;4931959;28;20094;-87
2023/06/08 05:20:24;;;;;;;17.20;5.95;;;13.10;99.90;;;;;;4948907;28;20674;-87
2023/06/08 05:22:50;;;;;;;17.42;6.75;;;13.20;99.90;;;;;;4926958;28;20050;-87
2023/06/08 05:25:16;;;;;;;19.60;6.30;;;13.20;99.90;;;;;;4938379;28;20137;-87
2023/06/08 05:27:42;;;;;;;24.35;7.57;;;13.20;99.90;;;;;;4941551;28;20078;-87
2023/06/08 05:30:08;;;;;;;15.90;6.13;;;13.30;99.90;;;;;;4942035;28;20038;-86
2023/06/08 05:32:34;;;;;;;23.77;7.15;;;13.30;99.90;;;;;;4939207;28;20047;-87
2023/06/08 05:35:00;;;;;;;23.27;6.43;;;13.30;99.90;;;;;;4941718;28;20477;-86
2023/06/08 05:37:27;;;;;;;18.30;5.97;;;13.40;99.90;;;;;;4939454;28;20299;-86
2023/06/08 05:39:52;;;;;;;19.60;6.05;;;13.40;99.90;;;;;;4940237;28;20103;-87
2023/06/08 05:42:19;;;;;;;23.02;6.70;;;13.50;99.90;;;;;;4939506;28;20390;-87
2023/06/08 05:44:45;;;;;;;24.60;6.07;;;13.50;99.90;;;;;;4939122;28;20046;-87
2023/06/08 05:47:10;;;;;;;17.58;6.20;;;13.60;99.90;;;;;;4942121;28;20343;-88
2023/06/08 05:49:36;;;;;;;20.02;5.53;;;13.70;99.90;;;;;;4946103;28;20097;-87
2023/06/08 05:52:02;;;;;;;21.38;6.28;;;13.70;99.90;;;;;;4951010;28;20672;-88
2023/06/08 05:54:28;;;;;;;18.50;5.15;;;13.60;99.90;;;;;;4944757;28;20126;-87
2023/06/08 05:56:53;;;;;;;23.63;6.80;;;13.60;99.90;;;;;;4942475;28;20141;-87
2023/06/08 05:59:19;;;;;;;21.55;6.90;;;13.70;99.90;;;;;;4962051;28;20081;-87
2023/06/08 06:01:45;;;;;;;21.70;6.28;;;13.80;99.90;;;;;;4942350;28;20038;-87
2023/06/08 06:04:11;;;;;;;22.27;5.80;;;13.90;99.90;;;;;;4944701;28;20516;-87
2023/06/08 06:06:37;;;;;;;21.35;6.32;;;14.00;99.90;;;;;;4963387;28;20046;-88
2023/06/08 06:09:03;;;;;;;19.48;5.55;;;14.10;99.90;;;;;;4942680;28;20031;-87
2023/06/08 06:11:30;;;;;;;17.75;5.88;;;14.20;99.90;;;;;;4941375;28;20039;-87
2023/06/08 06:13:57;;;;;;;21.63;6.28;;;14.30;99.90;;;;;;4937498;28;20057;-87
2023/06/08 06:16:23;;;;;;;20.40;7.45;;;14.40;99.90;;;;;;4937987;28;20118;-87
2023/06/08 06:18:50;;;;;;;33.88;7.22;;;14.30;99.90;;;;;;4947833;28;20133;-87
2023/06/08 06:21:16;;;;;;;23.00;6.57;;;14.40;99.90;;;;;;4959776;28;20042;-87
2023/06/08 06:23:44;;;;;;;20.58;5.97;;;14.50;99.90;;;;;;4950471;28;20456;-87
2023/06/08 06:26:11;;;;;;;22.38;6.15;;;14.60;99.90;;;;;;4937099;28;20133;-87
2023/06/08 06:28:38;;;;;;;27.48;6.53;;;14.70;99.90;;;;;;4953561;28;20031;-87
2023/06/08 06:31:04;;;;;;;22.95;5.65;;;14.80;99.90;;;;;;4938696;28;20443;-88
2023/06/08 06:33:30;;;;;;;19.27;5.22;;;14.90;99.90;;;;;;4937528;28;20483;-86
2023/06/08 06:35:56;;;;;;;20.88;5.18;;;15.10;99.90;;;;;;4937301;28;20057;-87
2023/06/08 06:38:22;;;;;;;16.30;5.32;;;15.20;99.90;;;;;;4936431;28;20129;-86
2023/06/08 06:40:50;;;;;;;21.67;5.38;;;15.10;99.90;;;;;;4937584;28;20065;-87
2023/06/08 06:43:16;;;;;;;21.83;5.50;;;15.00;99.90;;;;;;4940413;28;20070;-86
2023/06/08 06:45:42;;;;;;;18.42;4.47;;;15.00;99.90;;;;;;4954120;28;20487;-86
2023/06/08 06:48:08;;;;;;;18.88;4.80;;;14.90;99.90;;;;;;4935976;28;20049;-85
2023/06/08 06:50:34;;;;;;;19.08;4.88;;;14.80;99.90;;;;;;4954209;28;20494;-88
2023/06/08 06:52:59;;;;;;;16.85;5.40;;;14.80;99.90;;;;;;4938679;28;20046;-86
2023/06/08 06:55:25;;;;;;;19.48;6.05;;;14.90;99.90;;;;;;4950818;28;20042;-86
2023/06/08 06:57:52;;;;;;;19.45;5.50;;;15.00;99.90;;;;;;4937749;28;20049;-84
2023/06/08 07:00:19;;;;;;;23.33;5.28;;;15.10;99.90;;;;;;4936818;28;20527;-87
2023/06/08 07:02:45;;;;;;;13.45;4.50;;;15.20;99.90;;;;;;4937369;28;20122;-87
2023/06/08 07:05:11;;;;;;;15.75;4.63;;;15.30;99.90;;;;;;4937619;28;20486;-88
2023/06/08 07:07:37;;;;;;;14.70;4.47;;;15.40;99.90;;;;;;4937821;28;20106;-87
2023/06/08 07:10:03;;;;;;;18.50;5.00;;;15.50;99.90;;;;;;4936724;28;20047;-87
2023/06/08 07:12:30;;;;;;;14.32;4.25;;;15.60;99.90;;;;;;4944138;28;20066;-87
2023/06/08 07:14:56;;;;;;;21.30;5.07;;;15.80;99.90;;;;;;4948910;28;20520;-86
2023/06/08 07:17:22;;;;;;;20.13;4.70;;;15.90;99.90;;;;;;4955237;28;20050;-87
2023/06/08 07:19:51;;;;;;;20.02;4.53;;;15.90;99.90;;;;;;4934385;28;20218;-87
2023/06/08 07:22:17;;;;;;;15.95;4.63;;;16.00;99.90;;;;;;4936732;28;20046;-86
2023/06/08 07:24:42;;;;;;;14.50;4.78;;;16.00;99.90;;;;;;4963321;28;20054;-86
2023/06/08 07:27:08;;;;;;;21.73;5.03;;;16.10;99.90;;;;;;4972379;28;20085;-86
2023/06/08 07:29:34;;;;;;;16.98;4.85;;;16.00;99.90;;;;;;4949991;28;20380;-87
2023/06/08 07:32:00;;;;;;;12.98;3.92;;;16.00;99.90;;;;;;4962374;28;20046;-87
2023/06/08 07:34:26;;;;;;;19.30;4.50;;;16.00;99.90;;;;;;4953339;28;20067;-87
2023/06/08 07:36:51;;;;;;;22.55;5.03;;;16.00;99.90;;;;;;4962768;28;20042;-87
2023/06/08 07:39:17;;;;;;;19.48;5.07;;;16.10;99.90;;;;;;4942070;28;20046;-87
2023/06/08 07:41:43;;;;;;;13.63;4.57;;;16.20;99.90;;;;;;4963560;28;20565;-87
2023/06/08 07:44:08;;;;;;;14.25;4.50;;;16.20;99.90;;;;;;4942765;28;20034;-87
2023/06/08 07:46:34;;;;;;;13.05;4.07;;;16.30;99.90;;;;;;4953931;28;20129;-88
2023/06/08 07:49:00;;;;;;;20.88;4.75;;;16.30;99.90;;;;;;4941919;28;20050;-87
2023/06/08 07:51:25;;;;;;;24.08;4.82;;;16.50;99.90;;;;;;4951397;28;20046;-87
2023/06/08 07:53:51;;;;;;;19.42;4.97;;;16.50;99.90;;;;;;4942801;28;20126;-87
2023/06/08 07:56:18;;;;;;;16.80;4.53;;;16.70;99.90;;;;;;4951247;28;20038;-87
2023/06/08 07:58:43;;;;;;;18.48;4.70;;;16.60;99.90;;;;;;4941782;28;20045;-87
2023/06/08 08:01:09;;;;;;;16.95;4.70;;;16.70;99.90;;;;;;4957098;28;20042;-87
2023/06/08 08:03:37;;;;;;;16.80;4.53;;;16.80;99.90;;;;;;4958375;28;20046;-87
2023/06/08 08:06:04;;;;;;;16.05;4.88;;;16.80;99.90;;;;;;4944680;28;20053;-87
2023/06/08 08:08:30;;;;;;;19.23;5.15;;;16.90;99.90;;;;;;4956104;28;20046;-87
2023/06/08 08:10:56;;;;;;;16.05;4.38;;;17.00;99.90;;;;;;4936647;28;20050;-87
2023/06/08 08:13:21;;;;;;;18.65;4.57;;;17.20;99.90;;;;;;4940276;28;20043;-87
2023/06/08 08:15:47;;;;;;;23.90;4.55;;;17.30;99.90;;;;;;4963483;28;20050;-86
2023/06/08 08:18:13;;;;;;;22.27;4.47;;;17.30;99.90;;;;;;4933920;28;20075;-87
2023/06/08 08:20:39;;;;;;;17.42;4.90;;;17.40;99.90;;;;;;4935454;28;20495;-87
2023/06/08 08:23:05;;;;;;;17.15;4.88;;;17.50;99.90;;;;;;4948888;28;20102;-88
2023/06/08 08:25:31;;;;;;;16.00;4.80;;;17.60;99.90;;;;;;4961682;28;20114;-87
2023/06/08 08:27:57;;;;;;;15.32;4.60;;;17.60;99.90;;;;;;4956264;28;20046;-87
2023/06/08 08:30:23;;;;;;;16.63;4.22;;;17.70;99.90;;;;;;4951024;28;20054;-87
2023/06/08 08:32:49;;;;;;;17.83;4.63;;;17.70;99.90;;;;;;4969345;28;20045;-87
2023/06/08 08:35:15;;;;;;;21.48;4.82;;;17.70;99.90;;;;;;4953735;28;20505;-87
2023/06/08 08:37:42;;;;;;;21.30;4.80;;;17.70;99.90;;;;;;4955744;28;20515;-87
2023/06/08 08:40:11;;;;;;;14.52;3.90;;;17.70;99.90;;;;;;4964700;28;20054;-87
2023/06/08 08:42:43;;;;;;;16.67;4.68;;;17.70;99.90;;;;;;4949736;28;20061;-87
2023/06/08 08:45:14;;;;;;;17.33;5.03;;;17.80;99.90;;;;;;4970313;28;20054;-87
2023/06/08 08:47:42;;;;;;;15.60;3.65;;;17.90;99.90;;;;;;4952840;28;20046;-87
2023/06/08 08:50:16;;;;;;;20.42;4.55;;;18.00;99.90;;;;;;4969800;28;20057;-88
2023/06/08 08:52:44;;;;;;;15.82;4.38;;;18.00;99.90;;;;;;4952020;28;20446;-87
2023/06/08 08:55:11;;;;;;;20.17;4.47;;;18.00;99.90;;;;;;4948441;28;20051;-87
2023/06/08 08:57:37;;;;;;;20.05;4.25;;;18.10;99.90;;;;;;4953741;28;20042;-87
2023/06/08 09:00:06;;;;;;;12.88;3.80;;;18.20;99.90;;;;;;4953689;28;20117;-87
2023/06/08 09:02:35;;;;;;;13.27;3.85;;;18.30;99.90;;;;;;4952008;28;20046;-87
2023/06/08 09:05:03;;;;;;;14.18;4.07;;;18.40;99.90;;;;;;4956309;28;20038;-86
2023/06/08 09:07:30;;;;;;;16.55;4.20;;;18.50;99.90;;;;;;4968399;28;20053;-87
2023/06/08 09:10:18;;;;;;;14.10;4.35;;;18.50;99.90;;;;;;4954819;28;20102;-87
2023/06/08 09:12:48;;;;;;;20.17;4.55;;;18.60;99.90;;;;;;4955319;28;20426;-88
2023/06/08 09:15:30;;;;;;;12.23;4.13;;;18.80;99.90;;;;;;4939096;28;20149;-87
2023/06/08 09:17:58;;;;;;;15.32;4.22;;;18.80;99.90;;;;;;4944080;28;20054;-87
2023/06/08 09:20:32;;;;;;;19.10;4.97;;;18.90;99.90;;;;;;4955984;28;20397;-87
2023/06/08 09:23:14;;;;;;;17.88;4.88;;;19.00;99.90;;;;;;4960132;28;20047;-87
2023/06/08 09:25:40;;;;;;;19.42;4.35;;;18.90;99.90;;;;;;4972923;28;20426;-87
2023/06/08 09:28:22;;;;;;;15.15;4.15;;;19.00;99.90;;;;;;4972424;28;20607;-87
2023/06/08 09:30:50;;;;;;;15.52;4.50;;;19.00;99.90;;;;;;4956530;28;20573;-87
2023/06/08 09:33:24;;;;;;;16.45;4.15;;;19.00;99.90;;;;;;4960419;28;20169;-87
2023/06/08 09:36:04;;;;;;;17.83;4.57;;;19.00;99.90;;;;;;4957336;28;20073;-87
2023/06/08 09:38:32;;;;;;;14.32;4.07;;;19.00;99.90;;;;;;4937755;28;20652;-87
2023/06/08 09:41:14;;;;;;;12.73;3.38;;;19.00;99.90;;;;;;4953426;28;20423;-87
2023/06/08 09:43:44;;;;;;;14.77;4.15;;;19.10;99.90;;;;;;4957735;28;20414;-87
2023/06/08 09:46:13;;;;;;;15.43;4.15;;;19.20;99.90;;;;;;4954975;28;20089;-87
2023/06/08 09:48:40;;;;;;;17.40;4.68;;;19.20;99.90;;;;;;4962459;28;20594;-88
2023/06/08 09:51:09;;;;;;;14.68;4.15;;;19.10;99.90;;;;;;4957889;28;20046;-87
2023/06/08 09:53:37;;;;;;;15.57;4.20;;;19.20;99.90;;;;;;4953231;28;20047;-87
2023/06/08 09:56:04;;;;;;;14.60;4.10;;;19.30;99.90;;;;;;4953727;28;20046;-87
2023/06/08 09:58:35;;;;;;;15.25;4.22;;;19.40;99.90;;;;;;4953507;28;20467;-87
2023/06/08 10:01:08;;;;;;;12.98;3.72;;;19.40;99.90;;;;;;4970648;28;20046;-86
2023/06/08 10:03:38;;;;;;;17.30;4.55;;;19.60;99.90;;;;;;4956053;28;20039;-88
2023/06/08 10:06:07;;;;;;;15.25;4.03;;;19.60;99.90;;;;;;4946263;29;20050;-87
2023/06/08 10:08:33;;;;;;;20.30;4.10;;;19.70;99.90;;;;;;4949973;28;20117;-87
2023/06/08 10:11:00;;;;;;;11.52;3.70;;;19.70;99.90;;;;;;4934480;28;20042;-87
2023/06/08 10:13:27;;;;;;;13.57;4.07;;;19.80;99.90;;;;;;4948978;28;20053;-88
2023/06/08 10:15:54;;;;;;;16.50;4.28;;;19.90;99.90;;;;;;4981063;28;20046;-88
2023/06/08 10:18:21;;;;;;;17.40;4.25;;;19.90;99.90;;;;;;4940250;28;20082;-88
2023/06/08 10:20:47;;;;;;;9.75;3.42;;;19.90;99.90;;;;;;4955790;28;20039;-88
2023/06/08 10:23:13;;;;;;;13.50;3.92;;;20.00;99.90;;;;;;4957457;28;20063;-88
2023/06/08 10:25:41;;;;;;;16.55;3.88;;;20.00;99.90;;;;;;4950541;28;20366;-88
2023/06/08 10:28:09;;;;;;;9.80;3.90;;;20.10;99.90;;;;;;4943061;28;20175;-88
2023/06/08 10:30:40;;;;;;;12.68;3.58;;;20.20;99.90;;;;;;4960771;28;20133;-87
2023/06/08 10:33:11;;;;;;;10.90;3.45;;;20.10;99.90;;;;;;4956197;28;20053;-87
2023/06/08 10:35:40;;;;;;;10.38;3.10;;;20.10;99.90;;;;;;4940269;28;20101;-87
2023/06/08 10:38:09;;;;;;;13.43;3.92;;;20.10;99.90;;;;;;4953624;28;20042;-87
2023/06/08 10:40:44;;;;;;;15.40;3.72;;;20.20;99.90;;;;;;4944237;28;20042;-87
2023/06/08 10:43:10;;;;;;;19.23;4.00;;;20.20;99.90;;;;;;4938490;28;20137;-88
2023/06/08 10:45:38;;;;;;;14.65;3.72;;;20.20;99.90;;;;;;4938140;28;20051;-88
2023/06/08 10:48:09;;;;;;;12.23;3.35;;;20.20;99.90;;;;;;4959559;28;20104;-88
2023/06/08 10:50:39;;;;;;;12.32;4.05;;;20.30;99.90;;;;;;4961739;28;20190;-88
2023/06/08 10:53:05;;;;;;;11.80;3.25;;;20.30;99.90;;;;;;4939939;28;20129;-87
2023/06/08 10:55:31;;;;;;;10.23;3.30;;;20.40;99.90;;;;;;4955582;28;20054;-87
2023/06/08 10:58:06;;;;;;;11.63;3.30;;;20.40;99.90;;;;;;4940156;28;20130;-87
2023/06/08 11:00:33;;;;;;;15.13;3.80;;;20.40;99.90;;;;;;4938729;28;20049;-88
2023/06/08 11:03:01;;;;;;;10.52;3.45;;;20.50;99.90;;;;;;4938615;28;20171;-88
2023/06/08 11:05:33;;;;;;;8.63;3.00;;;20.50;99.90;;;;;;4938488;28;20467;-88
2023/06/08 11:08:00;;;;;;;11.88;3.30;;;20.40;99.90;;;;;;4943728;29;20058;-88
2023/06/08 11:10:27;;;;;;;10.65;3.50;;;20.40;99.90;;;;;;4936660;28;20114;-89
2023/06/08 11:12:53;;;;;;;12.55;3.53;;;20.50;99.90;;;;;;4938741;28;20056;-86
2023/06/08 11:15:21;;;;;;;12.70;2.90;;;20.50;99.90;;;;;;4942725;28;20049;-88
2023/06/08 11:17:57;;;;;;;10.20;3.13;;;20.40;99.90;;;;;;4945816;28;20050;-88
2023/06/08 11:20:25;;;;;;;14.63;3.70;;;20.50;99.90;;;;;;4943806;28;20038;-87
2023/06/08 11:22:51;;;;;;;11.27;3.80;;;20.40;99.90;;;;;;4948910;28;20053;-87
2023/06/08 11:25:20;;;;;;;14.82;3.60;;;20.50;99.90;;;;;;4952470;28;20051;-88
2023/06/08 11:27:46;;;;;;;12.68;4.05;;;20.50;99.90;;;;;;4934235;28;20039;-87
2023/06/08 11:30:17;;;;;;;10.07;3.47;;;20.70;99.90;;;;;;4942220;28;20129;-88
2023/06/08 11:32:47;;;;;;;17.00;4.25;;;20.70;99.90;;;;;;4958267;28;20078;-88
2023/06/08 11:35:12;;;;;;;13.02;3.50;;;20.70;99.90;;;;;;4954184;28;20043;-88
2023/06/08 11:37:41;;;;;;;13.32;3.90;;;20.80;99.90;;;;;;4938191;28;20055;-88
2023/06/08 11:40:10;;;;;;;9.77;3.28;;;20.90;99.90;;;;;;4932460;28;20074;-87
2023/06/08 11:42:37;;;;;;;18.55;3.95;;;20.90;99.90;;;;;;4953197;28;20046;-88
2023/06/08 11:45:04;;;;;;;12.48;3.53;;;20.90;99.90;;;;;;4949984;28;20559;-87
2023/06/08 11:47:31;;;;;;;13.65;4.25;;;21.00;99.90;;;;;;4949811;28;20082;-89
2023/06/08 11:50:03;;;;;;;12.50;3.90;;;21.00;99.90;;;;;;4946973;28;20114;-88
2023/06/08 11:52:30;;;;;;;9.67;3.40;;;21.00;99.90;;;;;;4930457;28;20483;-88
2023/06/08 11:54:59;;;;;;;17.08;4.13;;;21.00;99.90;;;;;;4941505;28;20458;-88
2023/06/08 11:57:40;;;;;;;9.43;2.80;;;21.10;99.90;;;;;;4958959;28;20389;-88
2023/06/08 12:00:09;;;;;;;10.30;3.20;;;21.10;99.90;;;;;;4948032;28;20060;-88
2023/06/08 12:02:52;;;;;;;16.80;3.38;;;20.90;99.90;;;;;;4941765;28;20038;-94
2023/06/08 12:05:22;;;;;;;14.52;3.25;;;21.00;99.90;;;;;;4940736;28;20054;-88
2023/06/08 12:07:57;;;;;;;12.82;3.42;;;21.00;99.90;;;;;;4950335;28;20046;-88
2023/06/08 12:10:32;;;;;;;11.23;3.03;;;21.00;99.90;;;;;;4940976;28;20502;-83
2023/06/08 12:12:59;;;;;;;16.75;3.40;;;21.10;99.90;;;;;;4939752;28;20491;-86
2023/06/08 12:15:25;;;;;;;15.45;3.60;;;21.10;99.90;;;;;;4950549;28;20088;-85
2023/06/08 12:17:50;;;;;;;13.98;3.13;;;21.10;99.90;;;;;;4942259;28;20472;-84
2023/06/08 12:20:17;;;;;;;13.77;3.22;;;21.10;99.90;;;;;;4939727;28;20038;-84
2023/06/08 12:22:43;;;;;;;9.98;2.63;;;21.10;99.90;;;;;;4959775;28;20080;-90
2023/06/08 12:25:09;;;;;;;15.13;3.42;;;21.20;99.90;;;;;;4941149;28;20471;-84
2023/06/08 12:27:37;;;;;;;13.27;3.28;;;21.20;99.90;;;;;;4958748;28;20051;-86
2023/06/08 12:30:04;;;;;;;11.00;3.28;;;21.20;99.90;;;;;;4941699;28;20066;-86
2023/06/08 12:32:32;;;;;;;13.45;3.30;;;21.20;99.90;;;;;;4959800;28;20050;-86
2023/06/08 12:34:59;;;;;;;14.77;3.72;;;21.10;99.90;;;;;;4954733;28;20038;-87
2023/06/08 12:37:25;;;;;;;19.77;3.70;;;21.10;99.90;;;;;;4971672;28;20051;-86